Aérodrome :
LOGIN :

S'inscrire | Disclaimer

   EN    FR    IT 

 










Légende :    VFR   VFR Marginal   IFR   IFR Intensif   IFR Très Intensif
Visi : 
Plafond : 
>= 8 km
>= 3000ft
5 à 8 km
1000 à 3000 ft
1500m à 5 km
500 à 1000 ft
800 à 1500m
200 à 500 ft
< 800m
< 200 ft
Symboles :   Orages  Brouillard  Fortes neiges  Fortes précipitations  Vent > 20 kt
SIGMETs :   Divers  Orages  Givrage  Turbulence  Onde Orograph.  Cendres Volcan.







- Altitude de l'aérodrome : 505 ft
- Code IATA : SXB
- Voir les cartes d'approche


LFST - Strasbourg

DERNIER METAR :
  • 142100Z AUTO VRB02KT 1000 0800 R23/1100D R05/1600U BCFG VV/// 06/05 Q1028 TEMPO 0100

METARs EXPIRÉS :
  • 142030Z AUTO 22004KT 190V260 0900 0800 R23/1100N R05/1200D FG VV/// 06/06 Q1028 TEMPO 0100
  • 142000Z AUTO 23003KT 0800 0750 R23/0900N R05/0900N FG VV/// 06/06 Q1028 TEMPO 0100
  • 141930Z AUTO VRB03KT 0700 0650 R23/0800N R05/0750N FG VV/// 06/06 Q1028 TEMPO 0100
  • 141900Z AUTO VRB03KT 0700 0600 R23/0900D R05/0750N FG VV/// 06/06 Q1028 TEMPO 0100
  • 141830Z AUTO VRB02KT 0800 0600 R23/1000N R05/0750N FG VV/// 06/06 Q1028 TEMPO 0100

TAF TAF LFST
Valide du 14 à 18h jusqu'au 15 à 18h UTC


141700Z 1418/1518 VRB02KT 0600 FG VV///
TEMPO 1418/1512 0100
PROB40
TEMPO 1512/1517 4000 BR OVC005
Pas de NOTAMs connus pour ce terrain.



MET'MAP, la Météo Aéronautique d'un coup d'oeil ! - Copyright ORBIFLY Décembre 2007 - Disclaimer

ORBIFLY MET'MAP TEAM :

Programmation & Développement : Alexandra Zaïnal
Conception & Développement : Baudouin d'Aumeries
Co-Programmation & Développement : Marc-Olivier Méhu
Soutien technique & logistique : Manuel Goepfert

Contact : metmap@orbifly.com




SOURCES & CREDITS :

   NOAA